createdAt,value
2019-06-20T00:00:30.281Z,987.58
2019-06-20T00:01:30.267Z,987.57
2019-06-20T00:02:30.257Z,987.60
2019-06-20T00:03:30.245Z,987.61
2019-06-20T00:04:30.235Z,987.63
2019-06-20T00:05:30.242Z,987.65
2019-06-20T00:06:30.212Z,987.63
2019-06-20T00:07:30.201Z,987.64
2019-06-20T00:08:30.183Z,987.65
2019-06-20T00:09:30.174Z,987.65
2019-06-20T00:10:30.158Z,987.68
2019-06-20T00:11:30.165Z,987.67
2019-06-20T00:12:30.140Z,987.65
2019-06-20T00:13:30.135Z,987.68
2019-06-20T00:14:30.114Z,987.65
2019-06-20T00:15:30.162Z,987.67
2019-06-20T00:16:30.094Z,987.67
2019-06-20T00:17:30.091Z,987.63
2019-06-20T00:18:30.064Z,987.65
2019-06-20T00:19:30.047Z,987.65
2019-06-20T00:20:30.041Z,987.59
2019-06-20T00:21:30.036Z,987.64
2019-06-20T00:22:30.019Z,987.65
2019-06-20T00:23:30.024Z,987.66
2019-06-20T00:24:29.990Z,987.69
2019-06-20T00:25:29.976Z,987.69
2019-06-20T00:26:29.965Z,987.71
2019-06-20T00:27:29.962Z,987.73
2019-06-20T00:28:29.956Z,987.74
2019-06-20T00:29:29.949Z,987.70
2019-06-20T00:30:29.926Z,987.72
2019-06-20T00:31:29.922Z,987.70
2019-06-20T00:32:29.895Z,987.72
2019-06-20T00:33:29.881Z,987.71
2019-06-20T00:34:29.873Z,987.70
2019-06-20T00:35:29.883Z,987.72
2019-06-20T00:36:29.851Z,987.71
2019-06-20T00:37:29.843Z,987.66
2019-06-20T00:38:29.829Z,987.63
2019-06-20T00:39:29.809Z,987.69
2019-06-20T00:40:29.804Z,987.61
2019-06-20T00:41:29.805Z,987.65
2019-06-20T00:42:29.783Z,987.60
2019-06-20T00:43:29.771Z,987.64
2019-06-20T00:44:29.749Z,987.69
2019-06-20T00:45:29.741Z,987.71
2019-06-20T00:46:29.738Z,987.69
2019-06-20T00:47:29.752Z,987.69
2019-06-20T00:48:29.711Z,987.71
2019-06-20T00:49:29.691Z,987.68
2019-06-20T00:50:29.683Z,987.70
2019-06-20T00:51:29.670Z,987.67
2019-06-20T00:52:29.659Z,987.68
2019-06-20T00:53:29.670Z,987.71
2019-06-20T00:54:29.631Z,987.69
2019-06-20T00:55:29.639Z,987.70
2019-06-20T00:56:29.617Z,987.71
2019-06-20T00:57:29.598Z,987.69
2019-06-20T00:58:29.588Z,987.75
2019-06-20T00:59:29.589Z,987.70
2019-06-20T01:00:29.560Z,987.70
2019-06-20T01:01:29.554Z,987.69
2019-06-20T01:02:29.536Z,987.74
2019-06-20T01:03:29.529Z,987.72
2019-06-20T01:04:29.515Z,987.77
2019-06-20T01:05:29.524Z,987.74
2019-06-20T01:06:29.492Z,987.82
2019-06-20T01:07:29.478Z,987.81
2019-06-20T01:08:29.471Z,987.85
2019-06-20T01:09:29.456Z,987.90
2019-06-20T01:10:29.441Z,987.92
2019-06-20T01:11:29.460Z,987.90
2019-06-20T01:12:29.417Z,987.93
2019-06-20T01:13:33.739Z,987.90
2019-06-20T01:14:29.397Z,987.93
2019-06-20T01:15:29.390Z,987.94
2019-06-20T01:16:29.372Z,987.88
2019-06-20T01:17:29.377Z,987.93
2019-06-20T01:18:29.349Z,987.90
2019-06-20T01:19:29.341Z,987.98
2019-06-20T01:20:29.338Z,987.93
2019-06-20T01:21:29.345Z,987.94
2019-06-20T01:22:29.303Z,987.98
2019-06-20T01:23:29.307Z,987.98
2019-06-20T01:24:29.284Z,988.02
2019-06-20T01:25:29.265Z,987.99
2019-06-20T01:26:29.254Z,987.98
2019-06-20T01:27:29.248Z,987.97
2019-06-20T01:28:29.228Z,988.03
2019-06-20T01:29:29.256Z,988.02
2019-06-20T01:30:29.214Z,988.13
2019-06-20T01:31:29.200Z,988.12
2019-06-20T01:32:29.181Z,988.13
2019-06-20T01:33:29.170Z,988.12
2019-06-20T01:34:29.168Z,988.16
2019-06-20T01:35:29.161Z,988.06
2019-06-20T01:36:29.139Z,988.11
2019-06-20T01:37:29.127Z,988.14
2019-06-20T01:38:29.111Z,988.08
2019-06-20T01:39:29.110Z,988.11
2019-06-20T01:40:29.084Z,988.12
2019-06-20T01:41:29.090Z,988.10
2019-06-20T01:42:29.070Z,988.09
2019-06-20T01:43:29.062Z,988.13
2019-06-20T01:44:29.046Z,988.13
2019-06-20T01:45:29.048Z,988.08
2019-06-20T01:46:29.012Z,988.11
2019-06-20T01:47:29.035Z,988.14
2019-06-20T01:48:28.990Z,988.13
2019-06-20T01:49:28.984Z,988.16
2019-06-20T01:50:28.964Z,988.17
2019-06-20T01:51:28.952Z,988.15
2019-06-20T01:52:28.945Z,988.13
2019-06-20T01:53:28.950Z,988.15
2019-06-20T01:54:28.928Z,988.08
2019-06-20T01:55:28.904Z,988.10
2019-06-20T01:56:28.904Z,988.13
2019-06-20T01:57:28.883Z,988.17
2019-06-20T01:58:28.868Z,988.16
2019-06-20T01:59:28.875Z,988.15
2019-06-20T02:00:28.844Z,988.21
2019-06-20T02:01:28.837Z,988.19
2019-06-20T02:02:28.822Z,988.14
2019-06-20T02:03:28.813Z,988.15
2019-06-20T02:04:28.797Z,988.12
2019-06-20T02:05:28.806Z,988.18
2019-06-20T02:06:28.775Z,988.12
2019-06-20T02:07:28.763Z,988.13
2019-06-20T02:08:28.779Z,988.10
2019-06-20T02:09:28.740Z,988.09
2019-06-20T02:10:28.730Z,988.09
2019-06-20T02:11:28.736Z,988.13
2019-06-20T02:12:28.743Z,988.12
2019-06-20T02:13:28.691Z,988.11
2019-06-20T02:14:28.696Z,988.13
2019-06-20T02:15:28.672Z,988.14
2019-06-20T02:16:28.655Z,988.11
2019-06-20T02:17:28.662Z,988.08
2019-06-20T02:18:28.660Z,988.10
2019-06-20T02:19:28.623Z,988.07
2019-06-20T02:20:28.611Z,988.08
2019-06-20T02:21:28.596Z,988.10
2019-06-20T02:22:28.601Z,988.10
2019-06-20T02:23:28.588Z,988.11
2019-06-20T02:24:28.562Z,988.13
2019-06-20T02:25:28.550Z,988.16
2019-06-20T02:26:28.540Z,988.11
2019-06-20T02:27:28.530Z,988.18
2019-06-20T02:28:28.521Z,988.17
2019-06-20T02:29:28.572Z,988.20
2019-06-20T02:30:28.498Z,988.23
2019-06-20T02:31:28.487Z,988.25
2019-06-20T02:32:28.477Z,988.25
2019-06-20T02:33:28.469Z,988.23
2019-06-20T02:34:28.444Z,988.24
2019-06-20T02:35:28.455Z,988.28
2019-06-20T02:36:28.425Z,988.24
2019-06-20T02:37:28.410Z,988.21
2019-06-20T02:38:28.400Z,988.27
2019-06-20T02:39:28.384Z,988.25
2019-06-20T02:40:28.373Z,988.29
2019-06-20T02:41:28.379Z,988.31
2019-06-20T02:42:28.355Z,988.27
2019-06-20T02:43:28.342Z,988.33
2019-06-20T02:44:30.701Z,988.30
2019-06-20T02:45:28.322Z,988.35
2019-06-20T02:46:28.371Z,988.38
2019-06-20T02:47:28.324Z,988.31
2019-06-20T02:48:28.282Z,988.32
2019-06-20T02:49:28.269Z,988.30
2019-06-20T02:50:28.255Z,988.29
2019-06-20T02:51:28.245Z,988.29
2019-06-20T02:52:28.236Z,988.31
2019-06-20T02:53:28.244Z,988.32
2019-06-20T02:54:28.210Z,988.35
2019-06-20T02:55:28.196Z,988.28
2019-06-20T02:56:28.185Z,988.33
2019-06-20T02:57:28.190Z,988.30
2019-06-20T02:58:28.168Z,988.30
2019-06-20T02:59:28.173Z,988.29
2019-06-20T03:00:28.140Z,988.31
2019-06-20T03:01:28.150Z,988.28
2019-06-20T03:02:28.128Z,988.31
2019-06-20T03:03:28.105Z,988.33
2019-06-20T03:04:28.093Z,988.40
2019-06-20T03:05:28.096Z,988.39
2019-06-20T03:06:28.064Z,988.45
2019-06-20T03:07:28.058Z,988.46
2019-06-20T03:08:28.043Z,988.50
2019-06-20T03:09:28.033Z,988.49
2019-06-20T03:10:28.022Z,988.58
2019-06-20T03:11:28.036Z,988.56
2019-06-20T03:12:27.995Z,988.57
2019-06-20T03:13:27.986Z,988.57
2019-06-20T03:14:27.973Z,988.58
2019-06-20T03:15:27.967Z,988.64
2019-06-20T03:16:27.947Z,988.65
2019-06-20T03:17:27.955Z,988.66
2019-06-20T03:18:27.933Z,988.67
2019-06-20T03:19:27.917Z,988.63
2019-06-20T03:20:27.907Z,988.70
2019-06-20T03:21:27.903Z,988.67
2019-06-20T03:22:27.883Z,988.68
2019-06-20T03:23:27.900Z,988.66
2019-06-20T03:24:27.860Z,988.62
2019-06-20T03:25:27.860Z,988.68
2019-06-20T03:26:27.843Z,988.73
2019-06-20T03:27:27.826Z,988.70
2019-06-20T03:28:27.813Z,988.71
2019-06-20T03:29:27.816Z,988.72
2019-06-20T03:30:27.824Z,988.73
2019-06-20T03:31:27.785Z,988.75
2019-06-20T03:32:27.778Z,988.78
2019-06-20T03:33:27.756Z,988.81
2019-06-20T03:34:27.741Z,988.78
2019-06-20T03:35:27.751Z,988.84
2019-06-20T03:36:27.735Z,988.80
2019-06-20T03:37:27.713Z,988.88
2019-06-20T03:38:27.695Z,988.90
2019-06-20T03:39:27.684Z,988.95
2019-06-20T03:40:27.677Z,988.88
2019-06-20T03:41:27.689Z,988.91
2019-06-20T03:42:27.650Z,988.93
2019-06-20T03:43:27.634Z,988.90
2019-06-20T03:44:27.631Z,988.93
2019-06-20T03:45:27.615Z,988.92
2019-06-20T03:46:27.605Z,988.91
2019-06-20T03:47:27.627Z,988.92
2019-06-20T03:48:27.581Z,988.95
2019-06-20T03:49:27.581Z,988.94
2019-06-20T03:50:27.556Z,988.95
2019-06-20T03:51:27.548Z,988.99
2019-06-20T03:52:27.530Z,988.98
2019-06-20T03:53:27.548Z,988.98
2019-06-20T03:54:27.526Z,989.02
2019-06-20T03:55:27.497Z,989.03
2019-06-20T03:56:27.500Z,989.01
2019-06-20T03:57:27.470Z,989.02
2019-06-20T03:58:27.473Z,989.05
2019-06-20T03:59:27.491Z,989.03
2019-06-20T04:00:27.441Z,989.06
2019-06-20T04:01:27.437Z,989.07
2019-06-20T04:02:27.475Z,989.12
2019-06-20T04:03:27.400Z,989.11
2019-06-20T04:04:27.391Z,989.13
2019-06-20T04:05:27.401Z,989.14
2019-06-20T04:06:27.373Z,989.18
2019-06-20T04:07:27.379Z,989.23
2019-06-20T04:08:27.343Z,989.23
2019-06-20T04:09:27.333Z,989.20
2019-06-20T04:10:27.331Z,989.24
2019-06-20T04:11:27.332Z,989.22
2019-06-20T04:12:27.306Z,989.24
2019-06-20T04:13:27.288Z,989.27
2019-06-20T04:14:27.304Z,989.24
2019-06-20T04:15:27.265Z,989.25
2019-06-20T04:16:27.252Z,989.24
2019-06-20T04:17:27.258Z,989.30
2019-06-20T04:18:27.230Z,989.28
2019-06-20T04:19:27.234Z,989.32
2019-06-20T04:20:27.207Z,989.32
2019-06-20T04:21:27.193Z,989.30
2019-06-20T04:22:27.187Z,989.31
2019-06-20T04:23:27.188Z,989.30
2019-06-20T04:24:28.112Z,989.33
2019-06-20T04:25:27.161Z,989.32
2019-06-20T04:26:27.142Z,989.32
2019-06-20T04:27:27.128Z,989.35
2019-06-20T04:28:27.114Z,989.37
2019-06-20T04:29:27.122Z,989.38
2019-06-20T04:30:27.094Z,989.40
2019-06-20T04:31:27.079Z,989.40
2019-06-20T04:32:27.064Z,989.37
2019-06-20T04:33:27.054Z,989.40
2019-06-20T04:34:27.046Z,989.39
2019-06-20T04:35:27.059Z,989.42
2019-06-20T04:36:27.024Z,989.44
2019-06-20T04:37:27.009Z,989.46
2019-06-20T04:38:27.006Z,989.45
2019-06-20T04:39:26.988Z,989.43
2019-06-20T04:40:26.987Z,989.50
2019-06-20T04:41:26.983Z,989.47
2019-06-20T04:42:26.955Z,989.50
2019-06-20T04:43:26.949Z,989.48
2019-06-20T04:44:26.928Z,989.48
2019-06-20T04:45:34.988Z,989.49
2019-06-20T04:46:27.928Z,989.50
2019-06-20T04:47:26.906Z,989.52
2019-06-20T04:48:26.886Z,989.47
2019-06-20T04:49:26.893Z,989.47
2019-06-20T04:50:26.860Z,989.49
2019-06-20T04:51:26.857Z,989.47
2019-06-20T04:52:26.867Z,989.47
2019-06-20T04:53:26.824Z,989.49
2019-06-20T04:54:26.816Z,989.53
2019-06-20T04:55:26.809Z,989.43
2019-06-20T04:56:26.792Z,989.48
2019-06-20T04:57:26.786Z,989.48
2019-06-20T04:58:26.789Z,989.50
2019-06-20T04:59:26.760Z,989.48
2019-06-20T05:00:26.760Z,989.49
2019-06-20T05:01:26.763Z,989.49
2019-06-20T05:02:26.723Z,989.53
2019-06-20T05:03:26.716Z,989.57
2019-06-20T05:04:26.721Z,989.61
2019-06-20T05:05:26.693Z,989.59
2019-06-20T05:06:26.675Z,989.57
2019-06-20T05:07:26.671Z,989.61
2019-06-20T05:08:26.657Z,989.59
2019-06-20T05:09:26.651Z,989.68
2019-06-20T05:10:26.651Z,989.61
2019-06-20T05:11:26.623Z,989.63
2019-06-20T05:12:26.613Z,989.66
2019-06-20T05:13:26.595Z,989.66
2019-06-20T05:14:26.587Z,989.68
2019-06-20T05:15:26.577Z,989.65
2019-06-20T05:16:26.588Z,989.65
2019-06-20T05:17:26.552Z,989.67
2019-06-20T05:18:26.563Z,989.68
2019-06-20T05:19:26.531Z,989.71
2019-06-20T05:20:26.518Z,989.64
2019-06-20T05:21:26.531Z,989.69
2019-06-20T05:22:26.523Z,989.69
2019-06-20T05:23:26.494Z,989.76
2019-06-20T05:24:26.475Z,989.72
2019-06-20T05:25:26.464Z,989.75
2019-06-20T05:26:26.451Z,989.77
2019-06-20T05:27:26.437Z,989.77
2019-06-20T05:28:26.445Z,989.73
2019-06-20T05:29:26.423Z,989.70
2019-06-20T05:30:26.403Z,989.71
2019-06-20T05:31:26.397Z,989.73
2019-06-20T05:32:26.384Z,989.76
2019-06-20T05:33:26.368Z,989.76
2019-06-20T05:34:26.410Z,989.77
2019-06-20T05:35:26.347Z,989.82
2019-06-20T05:36:26.338Z,989.81
2019-06-20T05:37:26.332Z,989.83
2019-06-20T05:38:26.324Z,989.83
2019-06-20T05:39:26.300Z,989.87
2019-06-20T05:40:26.319Z,989.82
2019-06-20T05:41:26.292Z,989.88
2019-06-20T05:42:26.271Z,989.90
2019-06-20T05:43:26.268Z,989.88
2019-06-20T05:44:26.249Z,989.90
2019-06-20T05:45:26.233Z,989.84
2019-06-20T05:46:26.271Z,989.89
2019-06-20T05:47:26.211Z,989.86
2019-06-20T05:48:26.203Z,989.88
2019-06-20T05:49:26.185Z,989.88
2019-06-20T05:50:26.175Z,989.92
2019-06-20T05:51:26.177Z,989.92
2019-06-20T05:52:26.187Z,989.91
2019-06-20T05:53:26.148Z,989.95
2019-06-20T05:54:26.132Z,989.97
2019-06-20T05:55:26.118Z,989.98
2019-06-20T05:56:26.130Z,989.97
2019-06-20T05:57:26.097Z,989.91
2019-06-20T05:58:26.119Z,989.91
2019-06-20T05:59:26.075Z,989.94
2019-06-20T06:00:26.078Z,989.88
2019-06-20T06:01:26.449Z,989.92
2019-06-20T06:02:26.041Z,989.92
2019-06-20T06:03:26.024Z,989.90
2019-06-20T06:04:26.399Z,989.90
2019-06-20T06:05:26.005Z,989.94
2019-06-20T06:06:25.998Z,989.97
2019-06-20T06:07:25.997Z,989.97
2019-06-20T06:08:25.978Z,990.04
2019-06-20T06:09:26.004Z,990.03
2019-06-20T06:10:25.988Z,990.06
2019-06-20T06:11:25.957Z,990.03
2019-06-20T06:12:25.929Z,990.04
2019-06-20T06:13:25.918Z,989.99
2019-06-20T06:14:25.899Z,989.96
2019-06-20T06:15:25.889Z,989.99
2019-06-20T06:16:28.327Z,990.04
2019-06-20T06:17:25.876Z,990.02
2019-06-20T06:18:25.855Z,990.03
2019-06-20T06:19:25.844Z,990.00
2019-06-20T06:20:25.867Z,989.96
2019-06-20T06:21:25.825Z,989.99
2019-06-20T06:22:25.852Z,989.94
2019-06-20T06:23:25.798Z,989.92
2019-06-20T06:24:25.845Z,989.98
2019-06-20T06:25:25.790Z,990.00
2019-06-20T06:26:25.781Z,990.02
2019-06-20T06:27:25.754Z,989.98
2019-06-20T06:28:25.799Z,990.10
2019-06-20T06:29:25.729Z,990.13
2019-06-20T06:30:25.735Z,990.18
2019-06-20T06:31:25.719Z,990.18
2019-06-20T06:32:39.193Z,990.18
2019-06-20T06:33:26.774Z,990.23
2019-06-20T06:34:25.685Z,990.22
2019-06-20T06:35:25.667Z,990.27
2019-06-20T06:36:25.660Z,990.24
2019-06-20T06:37:25.643Z,990.31
2019-06-20T06:38:25.632Z,990.46
2019-06-20T06:39:25.643Z,990.41
2019-06-20T06:40:25.619Z,990.46
2019-06-20T06:41:25.601Z,990.47
2019-06-20T06:42:25.582Z,990.90
2019-06-20T06:43:25.571Z,990.51
2019-06-20T06:44:25.563Z,990.55
2019-06-20T06:45:25.588Z,990.55
2019-06-20T06:46:25.549Z,990.64
2019-06-20T06:47:25.524Z,990.66
2019-06-20T06:48:25.514Z,991.74
2019-06-20T06:49:25.501Z,990.63
2019-06-20T06:50:25.507Z,990.51
2019-06-20T06:51:25.554Z,990.74
2019-06-20T06:52:25.502Z,990.59
2019-06-20T06:53:25.461Z,990.62
2019-06-20T06:54:25.473Z,991.66
2019-06-20T06:55:27.706Z,991.27
2019-06-20T06:56:25.438Z,990.92
2019-06-20T06:57:25.459Z,990.85
2019-06-20T06:58:25.415Z,990.65
2019-06-20T06:59:25.420Z,990.42
2019-06-20T07:00:25.388Z,990.28
2019-06-20T07:01:25.381Z,990.23
2019-06-20T07:02:26.380Z,990.20
2019-06-20T07:03:25.399Z,990.20
2019-06-20T07:04:25.352Z,990.10
2019-06-20T07:05:25.336Z,990.14
2019-06-20T07:06:25.314Z,990.19
2019-06-20T07:07:25.309Z,990.15
2019-06-20T07:08:25.308Z,990.14
2019-06-20T07:09:25.363Z,990.12
2019-06-20T07:10:25.315Z,990.17
2019-06-20T07:11:25.259Z,990.20
2019-06-20T07:12:25.246Z,990.22
2019-06-20T07:13:25.268Z,990.28
2019-06-20T07:14:25.233Z,990.30
2019-06-20T07:15:25.263Z,990.30
2019-06-20T07:16:25.222Z,990.32
2019-06-20T07:17:25.244Z,990.32
2019-06-20T07:18:25.185Z,990.31
2019-06-20T07:19:25.267Z,990.37
2019-06-20T07:20:25.163Z,990.37
2019-06-20T07:21:25.187Z,990.40
2019-06-20T07:22:25.144Z,990.48
2019-06-20T07:23:25.124Z,990.42
2019-06-20T07:24:25.119Z,990.45
2019-06-20T07:25:25.101Z,990.49
2019-06-20T07:26:25.095Z,990.75
2019-06-20T07:27:25.285Z,990.97
2019-06-20T07:28:25.082Z,990.88
2019-06-20T07:29:25.087Z,991.47
2019-06-20T07:30:25.049Z,991.50
2019-06-20T07:31:25.051Z,991.97
2019-06-20T07:32:25.046Z,991.83
2019-06-20T07:33:26.276Z,991.85
2019-06-20T07:34:25.012Z,991.83
2019-06-20T07:35:24.991Z,991.77
2019-06-20T07:36:24.987Z,991.76
2019-06-20T07:37:24.999Z,991.80
2019-06-20T07:38:24.970Z,991.82
2019-06-20T07:39:24.980Z,991.81
2019-06-20T07:40:24.942Z,991.79
2019-06-20T07:41:24.933Z,990.88
2019-06-20T07:42:24.945Z,991.84
2019-06-20T07:43:24.924Z,991.76
2019-06-20T07:44:24.900Z,991.76
2019-06-20T07:45:27.315Z,991.84
2019-06-20T07:46:24.890Z,991.80
2019-06-20T07:47:25.767Z,991.82
2019-06-20T07:48:24.869Z,991.88
2019-06-20T07:49:24.842Z,991.82
2019-06-20T07:50:24.851Z,991.81
2019-06-20T07:51:24.829Z,991.88
2019-06-20T07:52:24.811Z,991.87
2019-06-20T07:53:24.800Z,991.84
2019-06-20T07:54:24.792Z,991.77
2019-06-20T07:55:24.785Z,991.86
2019-06-20T07:56:24.882Z,991.67
2019-06-20T07:57:24.775Z,991.68
2019-06-20T07:58:24.754Z,991.89
2019-06-20T07:59:24.735Z,991.91
2019-06-20T08:00:24.738Z,991.83
2019-06-20T08:01:24.734Z,991.89
2019-06-20T08:02:24.751Z,990.52
2019-06-20T08:03:24.722Z,991.16
2019-06-20T08:04:24.688Z,991.88
2019-06-20T08:05:24.682Z,990.60
2019-06-20T08:06:24.674Z,990.58
2019-06-20T08:07:24.727Z,991.08
2019-06-20T08:08:24.694Z,990.83
2019-06-20T08:09:24.678Z,990.56
2019-06-20T08:10:24.635Z,990.58
2019-06-20T08:11:24.623Z,991.85
2019-06-20T08:12:24.658Z,991.85
2019-06-20T08:13:24.594Z,991.90
2019-06-20T08:14:24.663Z,991.95
2019-06-20T08:15:24.591Z,992.08
2019-06-20T08:16:24.594Z,990.65
2019-06-20T08:17:34.765Z,992.00
2019-06-20T08:18:25.561Z,990.62
2019-06-20T08:19:24.562Z,990.88
2019-06-20T08:20:24.579Z,990.78
2019-06-20T08:21:24.527Z,990.73
2019-06-20T08:22:24.511Z,992.02
2019-06-20T08:23:24.524Z,990.99
2019-06-20T08:24:24.488Z,991.96
2019-06-20T08:25:24.506Z,991.70
2019-06-20T08:26:24.521Z,992.00
2019-06-20T08:27:24.465Z,991.68
2019-06-20T08:28:24.455Z,991.11
2019-06-20T08:29:24.437Z,992.10
2019-06-20T08:30:24.434Z,992.12
2019-06-20T08:31:24.427Z,992.13
2019-06-20T08:32:24.478Z,991.77
2019-06-20T08:33:24.413Z,991.21
2019-06-20T08:34:24.398Z,991.70
2019-06-20T08:35:24.390Z,990.64
2019-06-20T08:36:24.384Z,990.68
2019-06-20T08:37:24.368Z,990.93
2019-06-20T08:38:24.405Z,991.97
2019-06-20T08:39:24.346Z,991.96
2019-06-20T08:40:24.355Z,991.65
2019-06-20T08:41:24.319Z,991.24
2019-06-20T08:42:24.311Z,991.30
2019-06-20T08:43:24.311Z,992.17
2019-06-20T08:44:24.347Z,991.56
2019-06-20T08:45:24.299Z,991.29
2019-06-20T08:46:24.297Z,991.77
2019-06-20T08:47:24.272Z,991.81
2019-06-20T08:48:24.269Z,991.91
2019-06-20T08:49:24.239Z,992.05
2019-06-20T08:50:24.328Z,991.96
2019-06-20T08:51:24.232Z,991.89
2019-06-20T08:52:24.216Z,990.91
2019-06-20T08:53:25.790Z,991.82
2019-06-20T08:54:24.210Z,991.86
2019-06-20T08:55:24.190Z,991.83
2019-06-20T08:56:24.212Z,991.83
2019-06-20T08:57:24.165Z,991.82
2019-06-20T08:58:24.175Z,991.93
2019-06-20T08:59:24.973Z,991.96
2019-06-20T09:00:24.810Z,991.95
2019-06-20T09:01:24.125Z,992.00
2019-06-20T09:02:24.167Z,991.99
2019-06-20T09:03:24.112Z,992.05
2019-06-20T09:04:24.119Z,991.73
2019-06-20T09:05:24.112Z,992.00
2019-06-20T09:06:24.083Z,991.79
2019-06-20T09:07:24.083Z,991.76
2019-06-20T09:08:24.095Z,991.74
2019-06-20T09:09:24.079Z,991.74
2019-06-20T09:10:24.060Z,991.78
2019-06-20T09:11:24.039Z,991.65
2019-06-20T09:12:24.043Z,991.68
2019-06-20T09:13:24.031Z,990.81
2019-06-20T09:14:24.035Z,990.90
2019-06-20T09:15:24.006Z,990.67
2019-06-20T09:16:24.841Z,991.73
2019-06-20T09:17:23.993Z,991.88
2019-06-20T09:18:23.985Z,991.00
2019-06-20T09:19:23.971Z,990.54
2019-06-20T09:20:23.984Z,990.52
2019-06-20T09:21:24.014Z,990.51
2019-06-20T09:22:23.940Z,990.54
2019-06-20T09:23:23.948Z,990.62
2019-06-20T09:24:23.920Z,991.65
2019-06-20T09:25:24.796Z,991.81
2019-06-20T09:26:23.952Z,991.82
2019-06-20T09:27:23.891Z,991.82
2019-06-20T09:28:23.927Z,991.80
2019-06-20T09:29:23.871Z,991.83
2019-06-20T09:30:23.878Z,991.81
2019-06-20T09:31:23.858Z,991.84
2019-06-20T09:32:23.898Z,991.82
2019-06-20T09:33:23.837Z,991.52
2019-06-20T09:34:23.855Z,990.51
2019-06-20T09:35:23.860Z,990.56
2019-06-20T09:36:23.824Z,990.69
2019-06-20T09:37:23.804Z,990.73
2019-06-20T09:38:23.823Z,990.58
2019-06-20T09:39:23.784Z,990.68
2019-06-20T09:40:23.777Z,990.65
2019-06-20T09:41:23.781Z,990.72
2019-06-20T09:42:23.772Z,990.73
2019-06-20T09:43:27.628Z,991.97
2019-06-20T09:44:23.817Z,991.92
2019-06-20T09:45:24.256Z,991.95
2019-06-20T09:46:23.712Z,991.93
2019-06-20T09:47:23.716Z,990.79
2019-06-20T09:48:23.701Z,990.74
2019-06-20T09:49:23.724Z,990.76
2019-06-20T09:50:23.707Z,990.82
2019-06-20T09:51:23.665Z,990.95
2019-06-20T09:52:23.661Z,990.86
2019-06-20T09:53:23.654Z,990.85
2019-06-20T09:54:23.636Z,990.88
2019-06-20T09:55:23.626Z,990.88
2019-06-20T09:56:23.657Z,990.96
2019-06-20T09:57:23.623Z,991.07
2019-06-20T09:58:23.602Z,990.88
2019-06-20T09:59:27.756Z,990.92
2019-06-20T10:00:23.586Z,992.11
2019-06-20T10:01:23.579Z,991.75
2019-06-20T10:02:23.592Z,990.85
2019-06-20T10:03:24.320Z,990.91
2019-06-20T10:04:23.609Z,991.46
2019-06-20T10:05:23.526Z,991.04
2019-06-20T10:06:23.515Z,991.35
2019-06-20T10:07:23.523Z,990.98
2019-06-20T10:08:23.886Z,991.68
2019-06-20T10:09:23.490Z,990.93
2019-06-20T10:10:23.487Z,991.54
2019-06-20T10:11:23.488Z,991.94
2019-06-20T10:12:23.473Z,992.02
2019-06-20T10:13:23.449Z,991.93
2019-06-20T10:14:25.823Z,990.86
2019-06-20T10:15:23.433Z,990.93
2019-06-20T10:16:23.432Z,991.05
2019-06-20T10:17:23.407Z,991.08
2019-06-20T10:18:23.404Z,991.04
2019-06-20T10:19:23.394Z,991.34
2019-06-20T10:20:23.408Z,990.90
2019-06-20T10:21:23.371Z,990.88
2019-06-20T10:22:24.348Z,990.81
2019-06-20T10:23:23.350Z,990.80
2019-06-20T10:24:23.352Z,990.81
2019-06-20T10:25:23.336Z,990.80
2019-06-20T10:26:23.363Z,990.84
2019-06-20T10:27:23.316Z,990.78
2019-06-20T10:28:23.328Z,990.79
2019-06-20T10:29:23.320Z,990.75
2019-06-20T10:30:23.282Z,990.74
2019-06-20T10:31:23.271Z,990.72
2019-06-20T10:32:23.282Z,990.63
2019-06-20T10:33:23.247Z,990.66
2019-06-20T10:34:23.258Z,990.70
2019-06-20T10:35:23.226Z,990.72
2019-06-20T10:36:23.224Z,990.71
2019-06-20T10:37:23.230Z,990.68
2019-06-20T10:38:23.236Z,990.70
2019-06-20T10:39:23.182Z,990.74
2019-06-20T10:40:23.182Z,990.72
2019-06-20T10:41:23.169Z,990.73
2019-06-20T10:42:23.163Z,990.76
2019-06-20T10:43:23.149Z,990.73
2019-06-20T10:44:23.170Z,990.75
2019-06-20T10:45:23.126Z,990.73
2019-06-20T10:46:23.107Z,990.76
2019-06-20T10:47:32.403Z,990.80
2019-06-20T10:48:23.090Z,990.85
2019-06-20T10:49:23.807Z,990.85
2019-06-20T10:50:23.094Z,991.02
2019-06-20T10:51:23.055Z,991.48
2019-06-20T10:52:23.040Z,991.24
2019-06-20T10:53:23.034Z,992.45
2019-06-20T10:54:23.026Z,992.49
2019-06-20T10:55:23.018Z,991.28
2019-06-20T10:56:23.043Z,991.18
2019-06-20T10:57:23.016Z,991.09
2019-06-20T10:58:23.005Z,991.00
2019-06-20T10:59:22.973Z,991.05
2019-06-20T11:00:30.670Z,991.10
2019-06-20T11:01:24.013Z,991.12
2019-06-20T11:02:22.960Z,991.05
2019-06-20T11:03:22.926Z,991.06
2019-06-20T11:04:22.917Z,991.15
2019-06-20T11:05:22.926Z,991.17
2019-06-20T11:06:22.908Z,991.20
2019-06-20T11:07:22.924Z,992.10
2019-06-20T11:08:22.882Z,992.21
2019-06-20T11:09:22.885Z,991.93
2019-06-20T11:10:22.875Z,991.72
2019-06-20T11:11:22.845Z,991.45
2019-06-20T11:12:22.836Z,991.37
2019-06-20T11:13:22.877Z,991.12
2019-06-20T11:14:22.833Z,991.90
2019-06-20T11:15:22.816Z,991.43
2019-06-20T11:16:22.804Z,991.59
2019-06-20T11:17:22.793Z,991.00
2019-06-20T11:18:22.769Z,991.03
2019-06-20T11:19:22.791Z,991.12
2019-06-20T11:20:22.783Z,991.09
2019-06-20T11:21:22.746Z,992.19
2019-06-20T11:22:22.734Z,991.50
2019-06-20T11:23:23.305Z,991.00
2019-06-20T11:24:22.723Z,991.00
2019-06-20T11:25:22.852Z,991.01
2019-06-20T11:26:22.695Z,990.95
2019-06-20T11:27:22.686Z,990.85
2019-06-20T11:28:22.691Z,990.87
2019-06-20T11:29:22.659Z,990.91
2019-06-20T11:30:22.654Z,991.10
2019-06-20T11:31:22.846Z,991.94
2019-06-20T11:32:22.635Z,990.92
2019-06-20T11:33:22.618Z,990.87
2019-06-20T11:34:22.638Z,990.93
2019-06-20T11:35:22.607Z,990.92
2019-06-20T11:36:23.318Z,990.89
2019-06-20T11:37:22.604Z,990.89
2019-06-20T11:38:22.572Z,990.81
2019-06-20T11:39:22.590Z,991.03
2019-06-20T11:40:22.556Z,991.01
2019-06-20T11:41:22.540Z,990.89
2019-06-20T11:42:22.540Z,990.83
2019-06-20T11:43:22.561Z,990.93
2019-06-20T11:44:22.527Z,990.83
2019-06-20T11:45:22.503Z,990.81
2019-06-20T11:46:23.345Z,991.01
2019-06-20T11:47:22.477Z,990.76
2019-06-20T11:48:22.503Z,991.09
2019-06-20T11:49:22.474Z,991.08
2019-06-20T11:50:22.441Z,990.75
2019-06-20T11:51:22.429Z,990.71
2019-06-20T11:52:22.425Z,990.64
2019-06-20T11:53:22.417Z,990.62
2019-06-20T11:54:22.401Z,990.60
2019-06-20T11:55:22.844Z,990.54
2019-06-20T11:56:22.379Z,990.51
2019-06-20T11:57:22.401Z,990.54
2019-06-20T11:58:23.555Z,990.47
2019-06-20T11:59:22.359Z,990.48
2019-06-20T12:00:22.361Z,990.46
2019-06-20T12:01:32.465Z,990.45
2019-06-20T12:02:22.345Z,990.42
2019-06-20T12:03:22.303Z,990.37
2019-06-20T12:04:22.294Z,990.34
2019-06-20T12:05:22.280Z,990.33
2019-06-20T12:06:22.284Z,990.32
2019-06-20T12:07:22.293Z,990.35
2019-06-20T12:08:22.259Z,990.37
2019-06-20T12:09:22.239Z,990.32
2019-06-20T12:10:22.256Z,990.38
2019-06-20T12:11:22.216Z,990.34
2019-06-20T12:12:22.206Z,990.34
2019-06-20T12:13:22.231Z,990.33
2019-06-20T12:14:22.884Z,990.29
2019-06-20T12:15:22.325Z,990.31
2019-06-20T12:16:22.161Z,990.28
2019-06-20T12:17:22.165Z,990.33
2019-06-20T12:18:22.141Z,990.31
2019-06-20T12:19:22.149Z,990.35
2019-06-20T12:20:22.120Z,990.33
2019-06-20T12:21:22.114Z,990.33
2019-06-20T12:22:22.128Z,990.35
2019-06-20T12:23:22.218Z,990.42
2019-06-20T12:24:22.091Z,990.45
2019-06-20T12:25:22.140Z,990.52
2019-06-20T12:26:22.065Z,990.55
2019-06-20T12:27:22.051Z,990.56
2019-06-20T12:28:22.035Z,990.60